sensor_id;sensor_type;location;lat;lon;timestamp;P1;durP1;ratioP1;P2;durP2;ratioP2
22675;SDS011;12521;43.310;21.876;2023-05-19T00:00:21;33.0;;;23.0;;
22675;SDS011;12521;43.310;21.876;2023-05-19T00:05:00;31.0;;;22.0;;
22675;SDS011;12521;43.310;21.876;2023-05-19T00:09:39;31.0;;;22.0;;
22675;SDS011;12521;43.310;21.876;2023-05-19T00:14:17;29.0;;;20.0;;
22675;SDS011;12521;43.310;21.876;2023-05-19T00:18:57;29.0;;;20.0;;
22675;SDS011;12521;43.310;21.876;2023-05-19T00:23:38;24.0;;;19.0;;
22675;SDS011;12521;43.310;21.876;2023-05-19T00:28:14;24.0;;;19.0;;
22675;SDS011;12521;43.310;21.876;2023-05-19T00:32:50;20.0;;;18.0;;
22675;SDS011;12521;43.310;21.876;2023-05-19T00:37:27;20.0;;;18.0;;
22675;SDS011;12521;43.310;21.876;2023-05-19T00:42:03;20.0;;;18.0;;
22675;SDS011;12521;43.310;21.876;2023-05-19T00:46:40;21.0;;;16.0;;
22675;SDS011;12521;43.310;21.876;2023-05-19T00:51:17;21.0;;;16.0;;
22675;SDS011;12521;43.310;21.876;2023-05-19T00:55:53;22.0;;;13.0;;
22675;SDS011;12521;43.310;21.876;2023-05-19T01:00:30;22.0;;;13.0;;
22675;SDS011;12521;43.310;21.876;2023-05-19T01:05:08;20.0;;;13.0;;
22675;SDS011;12521;43.310;21.876;2023-05-19T01:09:46;20.0;;;13.0;;
22675;SDS011;12521;43.310;21.876;2023-05-19T01:14:22;17.0;;;13.0;;
22675;SDS011;12521;43.310;21.876;2023-05-19T01:19:05;17.0;;;13.0;;
22675;SDS011;12521;43.310;21.876;2023-05-19T01:24:48;17.0;;;12.0;;
22675;SDS011;12521;43.310;21.876;2023-05-19T01:30:23;17.0;;;12.0;;
22675;SDS011;12521;43.310;21.876;2023-05-19T01:35:09;17.0;;;12.0;;
22675;SDS011;12521;43.310;21.876;2023-05-19T01:39:52;17.0;;;12.0;;
22675;SDS011;12521;43.310;21.876;2023-05-19T01:44:31;18.0;;;12.0;;
22675;SDS011;12521;43.310;21.876;2023-05-19T01:49:09;18.0;;;12.0;;
22675;SDS011;12521;43.310;21.876;2023-05-19T01:53:48;20.0;;;13.0;;
22675;SDS011;12521;43.310;21.876;2023-05-19T01:58:34;20.0;;;13.0;;
22675;SDS011;12521;43.310;21.876;2023-05-19T02:03:39;18.0;;;14.0;;
22675;SDS011;12521;43.310;21.876;2023-05-19T02:09:01;18.0;;;14.0;;
22675;SDS011;12521;43.310;21.876;2023-05-19T02:14:15;17.0;;;14.0;;
22675;SDS011;12521;43.310;21.876;2023-05-19T02:19:23;17.0;;;14.0;;
22675;SDS011;12521;43.310;21.876;2023-05-19T02:24:08;18.0;;;14.0;;
22675;SDS011;12521;43.310;21.876;2023-05-19T02:28:44;18.0;;;14.0;;
22675;SDS011;12521;43.310;21.876;2023-05-19T02:33:21;18.0;;;14.0;;
22675;SDS011;12521;43.310;21.876;2023-05-19T02:37:57;18.0;;;14.0;;
22675;SDS011;12521;43.310;21.876;2023-05-19T02:42:34;18.0;;;14.0;;
22675;SDS011;12521;43.310;21.876;2023-05-19T02:47:10;20.0;;;14.0;;
22675;SDS011;12521;43.310;21.876;2023-05-19T02:51:47;20.0;;;14.0;;
22675;SDS011;12521;43.310;21.876;2023-05-19T02:56:23;23.0;;;15.0;;
22675;SDS011;12521;43.310;21.876;2023-05-19T03:00:59;23.0;;;15.0;;
22675;SDS011;12521;43.310;21.876;2023-05-19T03:05:36;22.0;;;16.0;;
22675;SDS011;12521;43.310;21.876;2023-05-19T03:10:12;22.0;;;16.0;;
22675;SDS011;12521;43.310;21.876;2023-05-19T03:14:48;20.0;;;16.0;;
22675;SDS011;12521;43.310;21.876;2023-05-19T03:19:25;20.0;;;16.0;;
22675;SDS011;12521;43.310;21.876;2023-05-19T03:24:02;20.0;;;16.0;;
22675;SDS011;12521;43.310;21.876;2023-05-19T03:28:39;20.0;;;16.0;;
22675;SDS011;12521;43.310;21.876;2023-05-19T03:33:16;20.0;;;16.0;;
22675;SDS011;12521;43.310;21.876;2023-05-19T03:37:52;20.0;;;16.0;;
22675;SDS011;12521;43.310;21.876;2023-05-19T03:42:28;20.0;;;16.0;;
22675;SDS011;12521;43.310;21.876;2023-05-19T03:47:05;24.0;;;17.0;;
22675;SDS011;12521;43.310;21.876;2023-05-19T03:51:41;24.0;;;17.0;;
22675;SDS011;12521;43.310;21.876;2023-05-19T03:56:17;27.0;;;18.0;;
22675;SDS011;12521;43.310;21.876;2023-05-19T04:00:53;27.0;;;18.0;;
22675;SDS011;12521;43.310;21.876;2023-05-19T04:05:30;25.0;;;18.0;;
22675;SDS011;12521;43.310;21.876;2023-05-19T04:10:07;25.0;;;18.0;;
22675;SDS011;12521;43.310;21.876;2023-05-19T04:14:45;23.0;;;18.0;;
22675;SDS011;12521;43.310;21.876;2023-05-19T04:19:21;23.0;;;18.0;;
22675;SDS011;12521;43.310;21.876;2023-05-19T04:23:58;29.0;;;20.0;;
22675;SDS011;12521;43.310;21.876;2023-05-19T04:28:34;29.0;;;20.0;;
22675;SDS011;12521;43.310;21.876;2023-05-19T04:33:10;35.0;;;21.0;;
22675;SDS011;12521;43.310;21.876;2023-05-19T04:37:47;35.0;;;21.0;;
22675;SDS011;12521;43.310;21.876;2023-05-19T04:42:23;35.0;;;21.0;;
22675;SDS011;12521;43.310;21.876;2023-05-19T04:47:00;31.0;;;22.0;;
22675;SDS011;12521;43.310;21.876;2023-05-19T04:51:37;31.0;;;22.0;;
22675;SDS011;12521;43.310;21.876;2023-05-19T04:56:14;27.0;;;22.0;;
22675;SDS011;12521;43.310;21.876;2023-05-19T05:00:50;27.0;;;22.0;;
22675;SDS011;12521;43.310;21.876;2023-05-19T05:05:27;30.0;;;22.0;;
22675;SDS011;12521;43.310;21.876;2023-05-19T05:10:05;30.0;;;22.0;;
22675;SDS011;12521;43.310;21.876;2023-05-19T05:14:45;34.0;;;23.0;;
22675;SDS011;12521;43.310;21.876;2023-05-19T05:19:24;34.0;;;23.0;;
22675;SDS011;12521;43.310;21.876;2023-05-19T05:24:02;34.0;;;23.0;;
22675;SDS011;12521;43.310;21.876;2023-05-19T05:28:40;34.0;;;23.0;;
22675;SDS011;12521;43.310;21.876;2023-05-19T05:33:16;33.0;;;23.0;;
22675;SDS011;12521;43.310;21.876;2023-05-19T05:37:52;33.0;;;23.0;;
22675;SDS011;12521;43.310;21.876;2023-05-19T05:42:28;33.0;;;23.0;;
22675;SDS011;12521;43.310;21.876;2023-05-19T05:47:05;32.0;;;24.0;;
22675;SDS011;12521;43.310;21.876;2023-05-19T05:51:44;32.0;;;24.0;;
22675;SDS011;12521;43.310;21.876;2023-05-19T05:56:21;32.0;;;24.0;;
22675;SDS011;12521;43.310;21.876;2023-05-19T06:00:59;32.0;;;24.0;;
22675;SDS011;12521;43.310;21.876;2023-05-19T06:05:35;30.0;;;23.0;;
22675;SDS011;12521;43.310;21.876;2023-05-19T06:10:12;30.0;;;23.0;;
22675;SDS011;12521;43.310;21.876;2023-05-19T06:14:48;29.0;;;22.0;;
22675;SDS011;12521;43.310;21.876;2023-05-19T06:19:25;29.0;;;22.0;;
22675;SDS011;12521;43.310;21.876;2023-05-19T06:24:01;28.0;;;22.0;;
22675;SDS011;12521;43.310;21.876;2023-05-19T06:28:37;28.0;;;22.0;;
22675;SDS011;12521;43.310;21.876;2023-05-19T06:33:13;27.0;;;23.0;;
22675;SDS011;12521;43.310;21.876;2023-05-19T06:37:49;27.0;;;23.0;;
22675;SDS011;12521;43.310;21.876;2023-05-19T06:42:26;27.0;;;23.0;;
22675;SDS011;12521;43.310;21.876;2023-05-19T06:47:03;27.0;;;22.0;;
22675;SDS011;12521;43.310;21.876;2023-05-19T06:51:39;27.0;;;22.0;;
22675;SDS011;12521;43.310;21.876;2023-05-19T06:56:16;27.0;;;22.0;;
22675;SDS011;12521;43.310;21.876;2023-05-19T07:00:52;27.0;;;22.0;;
22675;SDS011;12521;43.310;21.876;2023-05-19T07:05:29;28.0;;;22.0;;
22675;SDS011;12521;43.310;21.876;2023-05-19T07:10:06;28.0;;;22.0;;
22675;SDS011;12521;43.310;21.876;2023-05-19T07:14:43;29.0;;;22.0;;
22675;SDS011;12521;43.310;21.876;2023-05-19T07:19:19;29.0;;;22.0;;
22675;SDS011;12521;43.310;21.876;2023-05-19T07:23:55;28.0;;;22.0;;
22675;SDS011;12521;43.310;21.876;2023-05-19T07:28:32;28.0;;;22.0;;
22675;SDS011;12521;43.310;21.876;2023-05-19T07:33:08;28.0;;;22.0;;
22675;SDS011;12521;43.310;21.876;2023-05-19T07:37:45;28.0;;;22.0;;
22675;SDS011;12521;43.310;21.876;2023-05-19T07:42:21;28.0;;;22.0;;
22675;SDS011;12521;43.310;21.876;2023-05-19T07:46:58;26.0;;;22.0;;
22675;SDS011;12521;43.310;21.876;2023-05-19T07:51:35;26.0;;;22.0;;
22675;SDS011;12521;43.310;21.876;2023-05-19T07:56:12;25.0;;;21.0;;
22675;SDS011;12521;43.310;21.876;2023-05-19T08:00:47;25.0;;;21.0;;
22675;SDS011;12521;43.310;21.876;2023-05-19T08:05:23;25.0;;;22.0;;
22675;SDS011;12521;43.310;21.876;2023-05-19T08:10:00;25.0;;;22.0;;
22675;SDS011;12521;43.310;21.876;2023-05-19T08:14:36;25.0;;;22.0;;
22675;SDS011;12521;43.310;21.876;2023-05-19T08:19:13;25.0;;;22.0;;
22675;SDS011;12521;43.310;21.876;2023-05-19T08:23:49;24.0;;;20.0;;
22675;SDS011;12521;43.310;21.876;2023-05-19T08:28:26;24.0;;;20.0;;
22675;SDS011;12521;43.310;21.876;2023-05-19T08:33:02;24.0;;;20.0;;
22675;SDS011;12521;43.310;21.876;2023-05-19T08:37:38;24.0;;;19.0;;
22675;SDS011;12521;43.310;21.876;2023-05-19T08:42:14;24.0;;;19.0;;
22675;SDS011;12521;43.310;21.876;2023-05-19T08:46:53;26.0;;;21.0;;
22675;SDS011;12521;43.310;21.876;2023-05-19T08:51:38;26.0;;;21.0;;
22675;SDS011;12521;43.310;21.876;2023-05-19T08:56:30;28.0;;;23.0;;
22675;SDS011;12521;43.310;21.876;2023-05-19T09:01:09;28.0;;;23.0;;
22675;SDS011;12521;43.310;21.876;2023-05-19T09:05:50;28.0;;;23.0;;
22675;SDS011;12521;43.310;21.876;2023-05-19T09:10:27;28.0;;;23.0;;
22675;SDS011;12521;43.310;21.876;2023-05-19T09:24:27;41.0;;;34.0;;
22675;SDS011;12521;43.310;21.876;2023-05-19T09:29:15;41.0;;;34.0;;
22675;SDS011;12521;43.310;21.876;2023-05-19T09:33:53;41.0;;;34.0;;
22675;SDS011;12521;43.310;21.876;2023-05-19T09:38:30;41.0;;;34.0;;
22675;SDS011;12521;43.310;21.876;2023-05-19T09:43:08;41.0;;;34.0;;
22675;SDS011;12521;43.310;21.876;2023-05-19T09:47:45;36.0;;;28.0;;
22675;SDS011;12521;43.310;21.876;2023-05-19T09:52:22;36.0;;;28.0;;
22675;SDS011;12521;43.310;21.876;2023-05-19T09:57:02;30.0;;;22.0;;
22675;SDS011;12521;43.310;21.876;2023-05-19T10:01:41;30.0;;;22.0;;
22675;SDS011;12521;43.310;21.876;2023-05-19T10:06:21;30.0;;;22.0;;
22675;SDS011;12521;43.310;21.876;2023-05-19T10:11:00;30.0;;;22.0;;
22675;SDS011;12521;43.310;21.876;2023-05-19T10:15:40;30.0;;;23.0;;
22675;SDS011;12521;43.310;21.876;2023-05-19T10:20:18;30.0;;;23.0;;
22675;SDS011;12521;43.310;21.876;2023-05-19T10:24:54;30.0;;;25.0;;
22675;SDS011;12521;43.310;21.876;2023-05-19T10:29:39;30.0;;;25.0;;
22675;SDS011;12521;43.310;21.876;2023-05-19T10:35:18;31.0;;;27.0;;
22675;SDS011;12521;43.310;21.876;2023-05-19T10:40:36;31.0;;;27.0;;
22675;SDS011;12521;43.310;21.876;2023-05-19T10:45:46;34.0;;;27.0;;
22675;SDS011;12521;43.310;21.876;2023-05-19T10:50:35;34.0;;;27.0;;
22675;SDS011;12521;43.310;21.876;2023-05-19T10:55:12;37.0;;;27.0;;
22675;SDS011;12521;43.310;21.876;2023-05-19T10:59:49;37.0;;;27.0;;
22675;SDS011;12521;43.310;21.876;2023-05-19T11:04:46;36.0;;;28.0;;
22675;SDS011;12521;43.310;21.876;2023-05-19T11:09:24;36.0;;;28.0;;
22675;SDS011;12521;43.310;21.876;2023-05-19T11:14:03;35.0;;;28.0;;
22675;SDS011;12521;43.310;21.876;2023-05-19T11:18:40;35.0;;;28.0;;
22675;SDS011;12521;43.310;21.876;2023-05-19T11:23:16;35.0;;;28.0;;
22675;SDS011;12521;43.310;21.876;2023-05-19T11:27:53;32.0;;;26.0;;
22675;SDS011;12521;43.310;21.876;2023-05-19T11:32:32;32.0;;;26.0;;
22675;SDS011;12521;43.310;21.876;2023-05-19T11:37:11;28.0;;;25.0;;
22675;SDS011;12521;43.310;21.876;2023-05-19T11:41:50;28.0;;;25.0;;
22675;SDS011;12521;43.310;21.876;2023-05-19T11:46:27;28.0;;;22.0;;
22675;SDS011;12521;43.310;21.876;2023-05-19T11:51:06;28.0;;;22.0;;
22675;SDS011;12521;43.310;21.876;2023-05-19T11:55:45;27.0;;;20.0;;
22675;SDS011;12521;43.310;21.876;2023-05-19T12:00:22;27.0;;;20.0;;
22675;SDS011;12521;43.310;21.876;2023-05-19T12:04:58;28.0;;;22.0;;
22675;SDS011;12521;43.310;21.876;2023-05-19T12:09:34;28.0;;;22.0;;
22675;SDS011;12521;43.310;21.876;2023-05-19T12:14:11;30.0;;;24.0;;
22675;SDS011;12521;43.310;21.876;2023-05-19T12:18:47;30.0;;;24.0;;
22675;SDS011;12521;43.310;21.876;2023-05-19T12:23:25;30.0;;;24.0;;
22675;SDS011;12521;43.310;21.876;2023-05-19T12:28:03;33.0;;;25.0;;
22675;SDS011;12521;43.310;21.876;2023-05-19T12:32:41;33.0;;;25.0;;
22675;SDS011;12521;43.310;21.876;2023-05-19T12:37:18;36.0;;;26.0;;
22675;SDS011;12521;43.310;21.876;2023-05-19T12:42:01;36.0;;;26.0;;
22675;SDS011;12521;43.310;21.876;2023-05-19T12:46:43;32.0;;;24.0;;
22675;SDS011;12521;43.310;21.876;2023-05-19T12:51:20;32.0;;;24.0;;
22675;SDS011;12521;43.310;21.876;2023-05-19T12:55:57;29.0;;;22.0;;
22675;SDS011;12521;43.310;21.876;2023-05-19T13:00:41;29.0;;;22.0;;
22675;SDS011;12521;43.310;21.876;2023-05-19T13:05:21;26.0;;;21.0;;
22675;SDS011;12521;43.310;21.876;2023-05-19T13:09:58;26.0;;;21.0;;
22675;SDS011;12521;43.310;21.876;2023-05-19T13:14:34;23.0;;;20.0;;
22675;SDS011;12521;43.310;21.876;2023-05-19T13:19:13;23.0;;;20.0;;
22675;SDS011;12521;43.310;21.876;2023-05-19T13:23:53;24.0;;;20.0;;
22675;SDS011;12521;43.310;21.876;2023-05-19T13:28:30;24.0;;;20.0;;
22675;SDS011;12521;43.310;21.876;2023-05-19T13:33:06;24.0;;;20.0;;
22675;SDS011;12521;43.310;21.876;2023-05-19T13:37:43;25.0;;;20.0;;
22675;SDS011;12521;43.310;21.876;2023-05-19T13:42:19;25.0;;;20.0;;
22675;SDS011;12521;43.310;21.876;2023-05-19T13:46:56;24.0;;;20.0;;
22675;SDS011;12521;43.310;21.876;2023-05-19T13:51:32;24.0;;;20.0;;
22675;SDS011;12521;43.310;21.876;2023-05-19T13:56:08;22.0;;;20.0;;
22675;SDS011;12521;43.310;21.876;2023-05-19T14:00:44;22.0;;;20.0;;
22675;SDS011;12521;43.310;21.876;2023-05-19T14:05:21;22.0;;;20.0;;
22675;SDS011;12521;43.310;21.876;2023-05-19T14:09:57;22.0;;;20.0;;
22675;SDS011;12521;43.310;21.876;2023-05-19T14:14:33;22.0;;;19.0;;
22675;SDS011;12521;43.310;21.876;2023-05-19T14:19:10;22.0;;;19.0;;
22675;SDS011;12521;43.310;21.876;2023-05-19T14:23:46;24.0;;;19.0;;
22675;SDS011;12521;43.310;21.876;2023-05-19T14:28:23;24.0;;;19.0;;
22675;SDS011;12521;43.310;21.876;2023-05-19T14:32:59;24.0;;;19.0;;
22675;SDS011;12521;43.310;21.876;2023-05-19T14:37:35;27.0;;;19.0;;
22675;SDS011;12521;43.310;21.876;2023-05-19T14:42:12;27.0;;;19.0;;
22675;SDS011;12521;43.310;21.876;2023-05-19T14:46:48;24.0;;;18.0;;
22675;SDS011;12521;43.310;21.876;2023-05-19T14:51:24;24.0;;;18.0;;
22675;SDS011;12521;43.310;21.876;2023-05-19T14:56:00;21.0;;;18.0;;
22675;SDS011;12521;43.310;21.876;2023-05-19T15:00:37;21.0;;;18.0;;
22675;SDS011;12521;43.310;21.876;2023-05-19T15:05:14;24.0;;;19.0;;
22675;SDS011;12521;43.310;21.876;2023-05-19T15:09:50;24.0;;;19.0;;
22675;SDS011;12521;43.310;21.876;2023-05-19T15:14:27;26.0;;;20.0;;
22675;SDS011;12521;43.310;21.876;2023-05-19T15:19:03;26.0;;;20.0;;
22675;SDS011;12521;43.310;21.876;2023-05-19T15:23:40;26.0;;;20.0;;
22675;SDS011;12521;43.310;21.876;2023-05-19T15:28:16;26.0;;;21.0;;
22675;SDS011;12521;43.310;21.876;2023-05-19T15:32:54;26.0;;;21.0;;
22675;SDS011;12521;43.310;21.876;2023-05-19T15:37:31;25.0;;;22.0;;
22675;SDS011;12521;43.310;21.876;2023-05-19T15:42:07;25.0;;;22.0;;
22675;SDS011;12521;43.310;21.876;2023-05-19T15:46:43;25.0;;;22.0;;
22675;SDS011;12521;43.310;21.876;2023-05-19T15:51:20;25.0;;;22.0;;
22675;SDS011;12521;43.310;21.876;2023-05-19T15:55:57;25.0;;;23.0;;
22675;SDS011;12521;43.310;21.876;2023-05-19T16:00:34;25.0;;;23.0;;
22675;SDS011;12521;43.310;21.876;2023-05-19T16:05:10;23.0;;;20.0;;
22675;SDS011;12521;43.310;21.876;2023-05-19T16:09:46;23.0;;;20.0;;
22675;SDS011;12521;43.310;21.876;2023-05-19T16:14:22;21.0;;;17.0;;
22675;SDS011;12521;43.310;21.876;2023-05-19T16:18:59;21.0;;;17.0;;
22675;SDS011;12521;43.310;21.876;2023-05-19T16:23:35;21.0;;;17.0;;
22675;SDS011;12521;43.310;21.876;2023-05-19T16:28:11;22.0;;;18.0;;
22675;SDS011;12521;43.310;21.876;2023-05-19T16:32:48;22.0;;;18.0;;
22675;SDS011;12521;43.310;21.876;2023-05-19T16:37:24;24.0;;;20.0;;
22675;SDS011;12521;43.310;21.876;2023-05-19T16:42:01;24.0;;;20.0;;
22675;SDS011;12521;43.310;21.876;2023-05-19T16:46:37;24.0;;;20.0;;
22675;SDS011;12521;43.310;21.876;2023-05-19T16:51:13;24.0;;;20.0;;
22675;SDS011;12521;43.310;21.876;2023-05-19T16:55:49;24.0;;;19.0;;
22675;SDS011;12521;43.310;21.876;2023-05-19T17:00:25;24.0;;;19.0;;
22675;SDS011;12521;43.310;21.876;2023-05-19T17:05:00;25.0;;;20.0;;
22675;SDS011;12521;43.310;21.876;2023-05-19T17:09:36;25.0;;;20.0;;
22675;SDS011;12521;43.310;21.876;2023-05-19T17:14:12;26.0;;;22.0;;
22675;SDS011;12521;43.310;21.876;2023-05-19T17:18:50;26.0;;;22.0;;
22675;SDS011;12521;43.310;21.876;2023-05-19T17:23:26;26.0;;;22.0;;
22675;SDS011;12521;43.310;21.876;2023-05-19T17:28:02;28.0;;;23.0;;
22675;SDS011;12521;43.310;21.876;2023-05-19T17:32:39;28.0;;;23.0;;
22675;SDS011;12521;43.310;21.876;2023-05-19T17:37:15;30.0;;;24.0;;
22675;SDS011;12521;43.310;21.876;2023-05-19T17:41:51;30.0;;;24.0;;
22675;SDS011;12521;43.310;21.876;2023-05-19T17:46:27;30.0;;;24.0;;
22675;SDS011;12521;43.310;21.876;2023-05-19T17:51:04;30.0;;;24.0;;
22675;SDS011;12521;43.310;21.876;2023-05-19T17:55:49;29.0;;;24.0;;
22675;SDS011;12521;43.310;21.876;2023-05-19T18:00:33;29.0;;;24.0;;
22675;SDS011;12521;43.310;21.876;2023-05-19T18:05:13;33.0;;;24.0;;
22675;SDS011;12521;43.310;21.876;2023-05-19T18:09:55;33.0;;;24.0;;
22675;SDS011;12521;43.310;21.876;2023-05-19T18:14:34;37.0;;;24.0;;
22675;SDS011;12521;43.310;21.876;2023-05-19T18:19:11;37.0;;;24.0;;
22675;SDS011;12521;43.310;21.876;2023-05-19T18:23:47;37.0;;;24.0;;
22675;SDS011;12521;43.310;21.876;2023-05-19T18:28:24;38.0;;;28.0;;
22675;SDS011;12521;43.310;21.876;2023-05-19T18:33:00;38.0;;;28.0;;
22675;SDS011;12521;43.310;21.876;2023-05-19T18:37:36;39.0;;;31.0;;
22675;SDS011;12521;43.310;21.876;2023-05-19T18:42:13;39.0;;;31.0;;
22675;SDS011;12521;43.310;21.876;2023-05-19T18:46:49;41.0;;;31.0;;
22675;SDS011;12521;43.310;21.876;2023-05-19T18:51:26;41.0;;;31.0;;
22675;SDS011;12521;43.310;21.876;2023-05-19T18:56:02;43.0;;;31.0;;
22675;SDS011;12521;43.310;21.876;2023-05-19T19:00:41;43.0;;;31.0;;
22675;SDS011;12521;43.310;21.876;2023-05-19T19:05:17;40.0;;;30.0;;
22675;SDS011;12521;43.310;21.876;2023-05-19T19:09:54;40.0;;;30.0;;
22675;SDS011;12521;43.310;21.876;2023-05-19T19:14:31;36.0;;;28.0;;
22675;SDS011;12521;43.310;21.876;2023-05-19T19:19:07;36.0;;;28.0;;
22675;SDS011;12521;43.310;21.876;2023-05-19T19:23:43;36.0;;;28.0;;
22675;SDS011;12521;43.310;21.876;2023-05-19T19:28:19;33.0;;;25.0;;
22675;SDS011;12521;43.310;21.876;2023-05-19T19:32:55;33.0;;;25.0;;
22675;SDS011;12521;43.310;21.876;2023-05-19T19:37:31;30.0;;;22.0;;
22675;SDS011;12521;43.310;21.876;2023-05-19T19:42:07;30.0;;;22.0;;
22675;SDS011;12521;43.310;21.876;2023-05-19T19:46:43;31.0;;;22.0;;
22675;SDS011;12521;43.310;21.876;2023-05-19T19:51:19;31.0;;;22.0;;
22675;SDS011;12521;43.310;21.876;2023-05-19T19:55:57;32.0;;;22.0;;
22675;SDS011;12521;43.310;21.876;2023-05-19T20:00:35;32.0;;;22.0;;
22675;SDS011;12521;43.310;21.876;2023-05-19T20:05:13;32.0;;;24.0;;
22675;SDS011;12521;43.310;21.876;2023-05-19T20:09:49;32.0;;;24.0;;
22675;SDS011;12521;43.310;21.876;2023-05-19T20:14:25;32.0;;;26.0;;
22675;SDS011;12521;43.310;21.876;2023-05-19T20:19:01;32.0;;;26.0;;
22675;SDS011;12521;43.310;21.876;2023-05-19T20:23:37;32.0;;;26.0;;
22675;SDS011;12521;43.310;21.876;2023-05-19T20:28:13;34.0;;;26.0;;
22675;SDS011;12521;43.310;21.876;2023-05-19T20:32:50;34.0;;;26.0;;
22675;SDS011;12521;43.310;21.876;2023-05-19T20:37:26;37.0;;;25.0;;
22675;SDS011;12521;43.310;21.876;2023-05-19T20:42:02;37.0;;;25.0;;
22675;SDS011;12521;43.310;21.876;2023-05-19T20:46:40;36.0;;;26.0;;
22675;SDS011;12521;43.310;21.876;2023-05-19T20:51:16;36.0;;;26.0;;
22675;SDS011;12521;43.310;21.876;2023-05-19T20:55:53;36.0;;;27.0;;
22675;SDS011;12521;43.310;21.876;2023-05-19T21:00:29;36.0;;;27.0;;
22675;SDS011;12521;43.310;21.876;2023-05-19T21:05:07;36.0;;;28.0;;
22675;SDS011;12521;43.310;21.876;2023-05-19T21:09:44;36.0;;;28.0;;
22675;SDS011;12521;43.310;21.876;2023-05-19T21:14:21;36.0;;;30.0;;
22675;SDS011;12521;43.310;21.876;2023-05-19T21:18:58;36.0;;;30.0;;
22675;SDS011;12521;43.310;21.876;2023-05-19T21:23:35;36.0;;;30.0;;
22675;SDS011;12521;43.310;21.876;2023-05-19T21:28:11;36.0;;;30.0;;
22675;SDS011;12521;43.310;21.876;2023-05-19T21:32:48;36.0;;;30.0;;
22675;SDS011;12521;43.310;21.876;2023-05-19T21:37:24;37.0;;;29.0;;
22675;SDS011;12521;43.310;21.876;2023-05-19T21:42:00;37.0;;;29.0;;
22675;SDS011;12521;43.310;21.876;2023-05-19T21:46:37;37.0;;;29.0;;
22675;SDS011;12521;43.310;21.876;2023-05-19T21:51:13;37.0;;;29.0;;
22675;SDS011;12521;43.310;21.876;2023-05-19T21:55:50;37.0;;;29.0;;
22675;SDS011;12521;43.310;21.876;2023-05-19T22:00:26;37.0;;;29.0;;
22675;SDS011;12521;43.310;21.876;2023-05-19T22:05:03;36.0;;;28.0;;
22675;SDS011;12521;43.310;21.876;2023-05-19T22:09:40;36.0;;;28.0;;
22675;SDS011;12521;43.310;21.876;2023-05-19T22:14:17;35.0;;;27.0;;
22675;SDS011;12521;43.310;21.876;2023-05-19T22:18:53;35.0;;;27.0;;
22675;SDS011;12521;43.310;21.876;2023-05-19T22:23:29;35.0;;;27.0;;
22675;SDS011;12521;43.310;21.876;2023-05-19T22:28:06;34.0;;;26.0;;
22675;SDS011;12521;43.310;21.876;2023-05-19T22:32:42;34.0;;;26.0;;
22675;SDS011;12521;43.310;21.876;2023-05-19T22:37:19;33.0;;;24.0;;
22675;SDS011;12521;43.310;21.876;2023-05-19T22:41:57;33.0;;;24.0;;
22675;SDS011;12521;43.310;21.876;2023-05-19T22:46:33;32.0;;;24.0;;
22675;SDS011;12521;43.310;21.876;2023-05-19T22:51:09;32.0;;;24.0;;
22675;SDS011;12521;43.310;21.876;2023-05-19T22:55:45;31.0;;;24.0;;
22675;SDS011;12521;43.310;21.876;2023-05-19T23:00:22;31.0;;;24.0;;
22675;SDS011;12521;43.310;21.876;2023-05-19T23:04:58;29.0;;;23.0;;
22675;SDS011;12521;43.310;21.876;2023-05-19T23:09:35;29.0;;;23.0;;
22675;SDS011;12521;43.310;21.876;2023-05-19T23:14:11;27.0;;;22.0;;
22675;SDS011;12521;43.310;21.876;2023-05-19T23:18:47;27.0;;;22.0;;
22675;SDS011;12521;43.310;21.876;2023-05-19T23:23:24;27.0;;;22.0;;
22675;SDS011;12521;43.310;21.876;2023-05-19T23:28:00;28.0;;;23.0;;
22675;SDS011;12521;43.310;21.876;2023-05-19T23:32:36;28.0;;;23.0;;
22675;SDS011;12521;43.310;21.876;2023-05-19T23:37:13;30.0;;;24.0;;
22675;SDS011;12521;43.310;21.876;2023-05-19T23:41:49;30.0;;;24.0;;
22675;SDS011;12521;43.310;21.876;2023-05-19T23:46:26;31.0;;;23.0;;
22675;SDS011;12521;43.310;21.876;2023-05-19T23:51:02;31.0;;;23.0;;
22675;SDS011;12521;43.310;21.876;2023-05-19T23:55:40;32.0;;;22.0;;
